Time;durP1;ratioP1;P1;durP2;ratioP2;P2;SDS_P1;SDS_P2;PMS_P1;PMS_P2;Temp;Humidity;BMP_temperature;BMP_pressure;BME280_temperature;BME280_humidity;BME280_pressure;Samples;Min_cycle;Max_cycle;Signal;HPM_P1;HPM_P2
2021/01/04 00:01:54;;;;;;;19.35;13.15;;;2.30;99.90;;;;;;5090127;28;20398;-76
2021/01/04 00:04:48;;;;;;;18.40;13.20;;;2.00;99.90;;;;;;5090169;28;20455;-78
2021/01/04 00:07:20;;;;;;;19.50;12.30;;;;;;;;;;5090920;28;20374;-77
2021/01/04 00:09:54;;;;;;;24.00;13.88;;;2.20;99.90;;;;;;5090811;28;20374;-77
2021/01/04 00:12:49;;;;;;;18.17;13.50;;;2.00;99.90;;;;;;5090380;28;20916;-77
2021/01/04 00:15:26;;;;;;;17.88;12.52;;;2.30;99.90;;;;;;5091081;28;20397;-75
2021/01/04 00:18:01;;;;;;;19.30;12.32;;;3.50;99.90;;;;;;5090948;28;20830;-75
2021/01/04 00:20:40;;;;;;;20.20;13.00;;;3.10;99.90;;;;;;5089851;28;20404;-75
2021/01/04 00:23:30;;;;;;;21.55;12.93;;;2.30;99.90;;;;;;5091182;28;20388;-75
2021/01/04 00:26:06;;;;;;;20.85;13.45;;;2.20;99.90;;;;;;5090862;28;20370;-75
2021/01/04 00:28:36;;;;;;;21.25;14.40;;;2.10;99.90;;;;;;5090382;28;20386;-77
2021/01/04 00:31:25;;;;;;;19.85;13.30;;;2.10;99.90;;;;;;5090918;28;20378;-76
2021/01/04 00:34:09;;;;;;;20.25;13.60;;;2.80;99.90;;;;;;5091078;28;20439;-76
2021/01/04 00:37:00;;;;;;;21.90;14.98;;;1.80;99.90;;;;;;5090089;28;20504;-76
2021/01/04 00:39:30;;;;;;;18.52;12.68;;;2.80;99.90;;;;;;5088701;28;20410;-76
2021/01/04 00:41:59;;;;;;;18.23;13.13;;;2.20;99.90;;;;;;5090659;28;20386;-75
2021/01/04 00:44:50;;;;;;;19.75;13.43;;;2.20;99.90;;;;;;5090105;28;20409;-76
2021/01/04 00:47:38;;;;;;;17.63;13.13;;;2.20;99.90;;;;;;5070898;28;20376;-75
2021/01/04 00:50:44;;;;;;;19.58;12.98;;;2.50;99.90;;;;;;5070573;28;20379;-75
2021/01/04 00:53:45;;;;;;;19.27;13.43;;;2.20;99.90;;;;;;5048965;28;20407;-75
2021/01/04 00:56:29;;;;;;;21.95;14.73;;;2.10;99.90;;;;;;5070187;28;20388;-75
2021/01/04 00:59:11;;;;;;;20.13;12.82;;;1.90;99.90;;;;;;5070683;28;20794;-75
2021/01/04 01:01:46;;;;;;;17.73;12.70;;;2.20;99.90;;;;;;5068432;28;20399;-75
2021/01/04 01:04:23;;;;;;;21.50;13.50;;;1.90;99.90;;;;;;5070136;28;20895;-75
2021/01/04 01:07:23;;;;;;;17.77;12.48;;;2.00;99.90;;;;;;5070540;28;20444;-76
2021/01/04 01:09:54;;;;;;;19.10;13.10;;;2.10;99.90;;;;;;5056939;28;20537;-76
2021/01/04 01:12:22;;;;;;;18.45;12.57;;;2.90;99.90;;;;;;5069453;28;20823;-75
2021/01/04 01:14:57;;;;;;;16.98;12.10;;;1.90;99.90;;;;;;5070102;28;20384;-75
2021/01/04 01:17:58;;;;;;;17.75;13.38;;;2.10;99.90;;;;;;5069920;28;20383;-80
2021/01/04 01:20:25;;;;;;;18.92;13.32;;;2.60;99.90;;;;;;5069552;28;20395;-77
2021/01/04 01:22:51;;;;;;;17.42;12.57;;;3.10;99.90;;;;;;5069109;28;20396;-75
2021/01/04 01:25:21;;;;;;;16.58;11.88;;;3.50;99.90;;;;;;5069990;28;20804;-75
2021/01/04 01:28:24;;;;;;;17.30;12.02;;;1.80;99.90;;;;;;5068518;28;20887;-75
2021/01/04 01:31:26;;;;;;;17.75;13.00;;;2.10;99.90;;;;;;5070025;28;20388;-75
2021/01/04 01:34:15;;;;;;;17.60;11.25;;;2.10;99.90;;;;;;5069012;28;20395;-75
2021/01/04 01:37:25;;;;;;;16.05;11.75;;;2.10;99.90;;;;;;5069602;28;20686;-75
2021/01/04 01:40:12;;;;;;;17.00;12.07;;;2.20;99.90;;;;;;5008041;28;20539;-76
2021/01/04 01:43:15;;;;;;;15.60;10.95;;;2.10;99.90;;;;;;5069237;28;20403;-76
2021/01/04 01:45:51;;;;;;;17.85;12.23;;;2.20;99.90;;;;;;5076736;28;20382;-76
2021/01/04 01:48:28;;;;;;;20.92;12.85;;;4.40;99.90;;;;;;5092496;28;20390;-76
2021/01/04 01:51:09;;;;;;;17.02;10.95;;;4.00;99.90;;;;;;5093753;28;20922;-76
2021/01/04 01:54:03;;;;;;;16.10;12.25;;;2.20;99.90;;;;;;5093212;28;20386;-76
2021/01/04 01:56:48;;;;;;;12.50;9.65;;;2.30;99.90;;;;;;5092989;28;20382;-77
2021/01/04 01:59:44;;;;;;;14.73;10.43;;;1.70;99.90;;;;;;5093688;28;20807;-76
2021/01/04 02:02:17;;;;;;;13.18;9.40;;;2.10;99.90;;;;;;5094146;28;20401;-77
2021/01/04 02:04:57;;;;;;;16.30;11.48;;;2.10;99.90;;;;;;5092798;28;20461;-77
2021/01/04 02:07:44;;;;;;;15.35;10.32;;;2.30;99.90;;;;;;5092507;28;20394;-78
2021/01/04 02:10:12;;;;;;;14.50;10.95;;;2.00;99.90;;;;;;5093366;28;20389;-75
2021/01/04 02:12:50;;;;;;;16.38;10.85;;;4.90;99.90;;;;;;5091012;28;20436;-75
2021/01/04 02:15:25;;;;;;;15.43;10.07;;;2.20;99.90;;;;;;5093466;28;20639;-75
2021/01/04 02:18:25;;;;;;;15.02;10.90;;;1.90;99.90;;;;;;5092714;28;20399;-75
2021/01/04 02:21:18;;;;;;;16.75;11.27;;;2.20;99.90;;;;;;5091624;28;20448;-76
2021/01/04 02:24:05;;;;;;;15.32;11.18;;;2.10;99.90;;;;;;5092551;28;20397;-76
2021/01/04 02:26:32;;;;;;;13.48;10.35;;;2.00;99.90;;;;;;5092562;28;20382;-76
2021/01/04 02:29:12;;;;;;;17.77;12.60;;;2.90;99.90;;;;;;5092911;28;20416;-76
2021/01/04 02:31:41;;;;;;;16.15;10.75;;;2.10;99.90;;;;;;5091007;28;20394;-76
2021/01/04 02:34:09;;;;;;;16.33;11.73;;;2.20;99.90;;;;;;5093395;28;20412;-76
2021/01/04 02:36:39;;;;;;;16.40;11.60;;;4.50;99.90;;;;;;5092233;28;20374;-76
2021/01/04 02:39:18;;;;;;;20.17;12.30;;;3.80;99.90;;;;;;5093150;28;20745;-76
2021/01/04 02:41:52;;;;;;;21.15;12.15;;;4.10;99.90;;;;;;5090897;28;20953;-76
2021/01/04 02:44:24;;;;;;;18.92;12.90;;;2.00;99.90;;;;;;5092942;28;20379;-76
2021/01/04 02:47:16;;;;;;;18.52;12.25;;;2.70;99.90;;;;;;5091795;28;20870;-76
2021/01/04 02:50:00;;;;;;;17.55;12.60;;;1.90;99.90;;;;;;5080475;28;20509;-76
2021/01/04 02:52:44;;;;;;;18.75;12.73;;;3.70;99.90;;;;;;5092765;28;20378;-77
2021/01/04 02:55:27;;;;;;;17.77;11.52;;;2.00;99.90;;;;;;5091166;28;20472;-77
2021/01/04 02:58:15;;;;;;;15.87;10.80;;;1.80;99.90;;;;;;5092004;28;20470;-76
2021/01/04 03:00:47;;;;;;;14.68;10.18;;;1.90;99.90;;;;;;5091815;28;20441;-76
2021/01/04 03:03:13;;;;;;;14.13;9.30;;;2.20;99.90;;;;;;5093137;28;20390;-76
2021/01/04 03:05:39;;;;;;;12.63;9.82;;;2.00;99.90;;;;;;5091873;28;20393;-76
2021/01/04 03:08:04;;;;;;;14.07;9.97;;;2.30;99.90;;;;;;5091366;28;20378;-76
2021/01/04 03:10:36;;;;;;;15.25;10.38;;;3.40;99.90;;;;;;5091956;28;20378;-79
2021/01/04 03:13:39;;;;;;;14.15;10.27;;;2.10;99.90;;;;;;5092434;28;20386;-76
2021/01/04 03:16:25;;;;;;;14.80;10.57;;;2.10;99.90;;;;;;5090857;28;20383;-76
2021/01/04 03:19:15;;;;;;;18.48;11.80;;;2.30;99.90;;;;;;5091432;28;20488;-76
2021/01/04 03:21:41;;;;;;;14.30;10.43;;;1.70;99.90;;;;;;5090178;28;20394;-76
2021/01/04 03:24:11;;;;;;;14.30;10.35;;;3.80;99.90;;;;;;5092508;28;20379;-76
2021/01/04 03:26:47;;;;;;;16.77;11.13;;;4.50;99.90;;;;;;5091297;28;20389;-77
2021/01/04 03:29:13;;;;;;;18.17;11.75;;;1.80;99.90;;;;;;5091952;28;20781;-76
2021/01/04 03:31:39;;;;;;;16.45;11.52;;;3.70;99.90;;;;;;5091064;28;20390;-76
2021/01/04 03:34:05;;;;;;;14.88;10.75;;;3.90;99.90;;;;;;5091979;28;20386;-76
2021/01/04 03:36:31;;;;;;;14.98;10.20;;;1.90;99.90;;;;;;5091531;28;20427;-79
2021/01/04 03:38:56;;;;;;;17.60;10.93;;;2.10;99.90;;;;;;5091193;28;20414;-76
2021/01/04 03:41:22;;;;;;;15.77;11.55;;;2.00;99.90;;;;;;5091522;28;20406;-76
2021/01/04 03:43:48;;;;;;;17.97;11.27;;;3.90;99.90;;;;;;5091096;28;20382;-76
2021/01/04 03:46:14;;;;;;;16.15;10.82;;;3.90;99.90;;;;;;5096165;28;20447;-76
2021/01/04 03:48:39;;;;;;;17.38;12.27;;;1.70;99.90;;;;;;5091016;28;20374;-76
2021/01/04 03:51:05;;;;;;;16.70;11.50;;;3.80;99.90;;;;;;5091398;28;20378;-75
2021/01/04 03:53:31;;;;;;;13.63;10.83;;;1.90;99.90;;;;;;5091098;28;20389;-78
2021/01/04 03:55:56;;;;;;;16.90;10.87;;;2.00;99.90;;;;;;5090575;28;20397;-75
2021/01/04 03:58:22;;;;;;;17.53;11.07;;;1.80;99.90;;;;;;5090943;28;20402;-75
2021/01/04 04:00:47;;;;;;;15.27;11.32;;;1.90;99.90;;;;;;5090948;28;20386;-75
2021/01/04 04:03:13;;;;;;;13.82;9.55;;;2.50;99.90;;;;;;5089382;28;20809;-75
2021/01/04 04:05:39;;;;;;;14.77;10.73;;;4.30;99.90;;;;;;5090610;28;20390;-76
2021/01/04 04:08:05;;;;;;;19.17;11.05;;;2.50;99.90;;;;;;5091352;28;20854;-75
2021/01/04 04:10:31;;;;;;;15.43;11.35;;;1.90;99.90;;;;;;5090443;28;20954;-77
2021/01/04 04:12:57;;;;;;;16.83;11.45;;;1.80;99.90;;;;;;5090615;28;20461;-75
2021/01/04 04:15:24;;;;;;;15.25;10.80;;;3.60;99.90;;;;;;5091348;28;20378;-75
2021/01/04 04:17:50;;;;;;;14.80;10.40;;;1.80;99.90;;;;;;5090234;28;20715;-76
2021/01/04 04:20:22;;;;;;;16.80;11.60;;;2.00;99.90;;;;;;5090995;28;20870;-75
2021/01/04 04:22:49;;;;;;;18.27;11.30;;;4.60;99.90;;;;;;5090276;28;20374;-75
2021/01/04 04:25:16;;;;;;;14.25;10.50;;;1.90;99.90;;;;;;5089842;28;20755;-76
2021/01/04 04:27:41;;;;;;;16.35;11.75;;;2.30;99.90;;;;;;5089976;28;20432;-76
2021/01/04 04:30:10;;;;;;;16.10;10.80;;;4.00;99.90;;;;;;5090822;28;20851;-75
2021/01/04 04:32:36;;;;;;;21.50;12.38;;;1.80;99.90;;;;;;5088951;28;20893;-78
2021/01/04 04:35:04;;;;;;;15.50;11.48;;;2.40;99.90;;;;;;5090976;28;20386;-75
2021/01/04 04:37:30;;;;;;;15.43;10.82;;;2.10;99.90;;;;;;5089353;28;20942;-75
2021/01/04 04:39:55;;;;;;;17.57;11.50;;;1.90;99.90;;;;;;5089763;28;20401;-75
2021/01/04 04:42:21;;;;;;;16.10;10.93;;;2.10;99.90;;;;;;5091142;28;20389;-75
2021/01/04 04:45:11;;;;;;;15.90;10.95;;;2.30;99.90;;;;;;5090000;28;20382;-75
2021/01/04 04:47:57;;;;;;;19.23;12.48;;;1.60;99.90;;;;;;5090280;28;20457;-78
2021/01/04 04:50:44;;;;;;;18.60;12.15;;;1.90;99.90;;;;;;5091212;28;20378;-75
2021/01/04 04:53:35;;;;;;;16.25;11.43;;;1.90;99.90;;;;;;5090777;28;20382;-74
2021/01/04 04:56:31;;;;;;;16.55;12.02;;;1.70;99.90;;;;;;5090610;28;20375;-76
2021/01/04 04:59:13;;;;;;;15.25;10.65;;;2.00;99.90;;;;;;5089867;28;20906;-76
2021/01/04 05:01:53;;;;;;;13.77;10.00;;;2.10;99.90;;;;;;5089869;28;20492;-76
2021/01/04 05:04:48;;;;;;;14.80;10.20;;;1.90;99.90;;;;;;5091117;28;20559;-76
2021/01/04 05:07:41;;;;;;;16.55;10.55;;;2.00;99.90;;;;;;5089599;28;20409;-76
2021/01/04 05:10:26;;;;;;;15.50;10.15;;;2.20;99.90;;;;;;5090944;28;20431;-76
2021/01/04 05:12:58;;;;;;;16.48;11.30;;;1.80;99.90;;;;;;5089716;28;20378;-76
2021/01/04 05:15:36;;;;;;;14.70;10.70;;;4.20;99.90;;;;;;5090721;28;20388;-75
2021/01/04 05:18:20;;;;;;;16.08;11.20;;;2.30;99.90;;;;;;5090224;28;20408;-77
2021/01/04 05:21:18;;;;;;;16.55;10.48;;;1.90;99.90;;;;;;5090021;28;20428;-76
2021/01/04 05:24:02;;;;;;;13.77;9.98;;;1.80;99.90;;;;;;5092982;28;20396;-76
2021/01/04 05:26:48;;;;;;;14.85;10.25;;;1.80;99.90;;;;;;5094513;28;20768;-75
2021/01/04 05:29:36;;;;;;;15.02;10.13;;;1.70;99.90;;;;;;5094267;28;20445;-76
2021/01/04 05:32:27;;;;;;;14.77;10.02;;;2.50;99.90;;;;;;5092436;28;20405;-75
2021/01/04 05:34:58;;;;;;;14.27;10.40;;;1.90;99.90;;;;;;5057020;28;20447;-76
2021/01/04 05:37:43;;;;;;;15.10;10.63;;;1.90;99.90;;;;;;5094020;28;20472;-75
2021/01/04 05:40:17;;;;;;;18.23;11.95;;;2.50;99.90;;;;;;5093230;28;20394;-76
2021/01/04 05:43:07;;;;;;;17.50;11.68;;;2.10;99.90;;;;;;5092284;28;20476;-75
2021/01/04 05:45:49;;;;;;;13.77;10.27;;;2.00;99.90;;;;;;5094216;28;20426;-75
2021/01/04 05:48:15;;;;;;;14.68;10.75;;;1.70;99.90;;;;;;5094289;28;20469;-75
2021/01/04 05:50:53;;;;;;;14.57;9.47;;;1.80;99.90;;;;;;5093506;28;20550;-78
2021/01/04 05:53:20;;;;;;;16.90;11.60;;;1.80;99.90;;;;;;5094120;28;20389;-75
2021/01/04 05:55:45;;;;;;;14.38;9.43;;;1.90;99.90;;;;;;5093313;28;20435;-75
2021/01/04 05:58:15;;;;;;;13.90;9.90;;;1.80;99.90;;;;;;5093876;28;20406;-75
2021/01/04 06:00:40;;;;;;;14.05;10.05;;;2.50;99.90;;;;;;5093534;28;20365;-78
2021/01/04 06:03:20;;;;;;;13.50;9.00;;;3.80;99.90;;;;;;5093867;28;20719;-75
2021/01/04 06:05:47;;;;;;;12.73;8.88;;;1.60;99.90;;;;;;5093137;28;20385;-76
2021/01/04 06:08:39;;;;;;;12.77;8.80;;;2.00;99.90;;;;;;5093578;28;20389;-75
2021/01/04 06:11:09;;;;;;;13.98;9.40;;;4.00;99.90;;;;;;5087412;28;20417;-75
2021/01/04 06:13:44;;;;;;;15.13;9.50;;;2.20;99.90;;;;;;5093818;28;20370;-75
2021/01/04 06:16:24;;;;;;;15.13;10.30;;;2.90;99.90;;;;;;5093854;28;20477;-75
2021/01/04 06:18:57;;;;;;;14.88;10.65;;;2.10;99.90;;;;;;5092553;28;20450;-75
2021/01/04 06:21:38;;;;;;;15.60;9.95;;;2.20;99.90;;;;;;5093444;28;20723;-75
2021/01/04 06:24:05;;;;;;;14.90;10.27;;;2.10;99.90;;;;;;5092384;28;20394;-75
2021/01/04 06:26:30;;;;;;;13.63;9.50;;;1.60;99.90;;;;;;5093576;28;20378;-75
2021/01/04 06:29:07;;;;;;;13.03;9.50;;;2.40;99.90;;;;;;5092590;28;20378;-75
2021/01/04 06:31:46;;;;;;;13.00;9.40;;;2.00;99.90;;;;;;5093606;28;20417;-75
2021/01/04 06:34:23;;;;;;;13.55;9.18;;;2.00;99.90;;;;;;5092480;28;20378;-75
2021/01/04 06:36:54;;;;;;;19.42;12.13;;;1.90;99.90;;;;;;5092261;28;20847;-74
2021/01/04 06:39:27;;;;;;;17.90;10.85;;;4.10;99.90;;;;;;5091851;28;20420;-75
2021/01/04 06:41:53;;;;;;;15.45;10.15;;;2.60;99.90;;;;;;5092405;28;20381;-75
2021/01/04 06:44:22;;;;;;;14.27;10.32;;;4.70;99.90;;;;;;5093060;28;20374;-75
2021/01/04 06:47:06;;;;;;;16.88;9.85;;;2.60;99.90;;;;;;5090881;28;20398;-76
2021/01/04 06:49:43;;;;;;;14.07;10.35;;;4.50;99.90;;;;;;5093127;28;20439;-75
2021/01/04 06:52:21;;;;;;;17.20;11.00;;;3.20;99.90;;;;;;5092617;28;20375;-75
2021/01/04 06:54:55;;;;;;;13.73;10.80;;;2.10;99.90;;;;;;5092084;28;20374;-76
2021/01/04 06:58:01;;;;;;;14.82;10.02;;;2.00;99.90;;;;;;5092697;28;20736;-75
2021/01/04 07:00:46;;;;;;;16.75;11.57;;;1.60;99.90;;;;;;5092723;28;20486;-75
2021/01/04 07:03:36;;;;;;;16.60;11.27;;;1.70;99.90;;;;;;5092875;28;20481;-75
2021/01/04 07:06:32;;;;;;;17.58;11.63;;;2.10;99.90;;;;;;5090676;28;20438;-75
2021/01/04 07:09:13;;;;;;;18.52;12.38;;;2.20;99.90;;;;;;5090663;28;20397;-75
2021/01/04 07:11:56;;;;;;;17.67;12.05;;;1.80;99.90;;;;;;5092591;28;20988;-75
2021/01/04 07:14:49;;;;;;;19.80;13.13;;;1.50;99.90;;;;;;5092556;28;20386;-75
2021/01/04 07:17:23;;;;;;;18.25;13.13;;;1.60;99.90;;;;;;5092761;28;20417;-75
2021/01/04 07:20:10;;;;;;;17.92;12.07;;;1.80;99.90;;;;;;5091448;28;20406;-75
2021/01/04 07:23:06;;;;;;;17.17;12.45;;;2.30;99.90;;;;;;5091143;28;20470;-75
2021/01/04 07:25:59;;;;;;;15.02;11.40;;;1.60;99.90;;;;;;5092382;28;20382;-75
2021/01/04 07:28:24;;;;;;;17.25;12.25;;;1.60;99.90;;;;;;5092605;28;20402;-75
2021/01/04 07:30:58;;;;;;;17.10;12.32;;;2.40;99.90;;;;;;5091775;28;20850;-75
2021/01/04 07:33:40;;;;;;;18.50;12.43;;;2.50;99.90;;;;;;5092154;28;20421;-75
2021/01/04 07:36:18;;;;;;;19.25;12.80;;;1.50;99.90;;;;;;5091959;28;20569;-75
2021/01/04 07:39:19;;;;;;;19.20;13.00;;;1.90;99.90;;;;;;5091410;28;20436;-78
2021/01/04 07:42:10;;;;;;;16.92;12.18;;;1.50;99.90;;;;;;5091222;28;20410;-76
2021/01/04 07:44:57;;;;;;;19.83;13.73;;;1.50;99.90;;;;;;5091813;28;20382;-75
2021/01/04 07:47:29;;;;;;;18.25;11.88;;;2.80;99.90;;;;;;5072027;28;20460;-76
2021/01/04 07:50:00;;;;;;;18.60;12.48;;;2.00;99.90;;;;;;5071403;28;20391;-76
2021/01/04 07:53:03;;;;;;;18.35;13.70;;;2.10;99.90;;;;;;5071959;28;20375;-75
2021/01/04 07:55:50;;;;;;;20.25;14.02;;;2.00;99.90;;;;;;5071499;28;20385;-76
2021/01/04 07:58:34;;;;;;;18.85;13.18;;;2.00;99.90;;;;;;5071942;28;20404;-76
2021/01/04 08:01:39;;;;;;;18.98;13.65;;;2.10;99.90;;;;;;5070996;28;20376;-76
2021/01/04 08:04:44;;;;;;;23.42;13.85;;;2.20;99.90;;;;;;5071496;28;20606;-77
2021/01/04 08:07:40;;;;;;;19.88;12.95;;;2.20;99.90;;;;;;5071159;28;20380;-76
2021/01/04 08:10:31;;;;;;;19.03;13.60;;;2.20;99.90;;;;;;5045307;28;20446;-77
2021/01/04 08:13:34;;;;;;;19.60;13.32;;;2.10;99.90;;;;;;5070790;28;20416;-77
2021/01/04 08:16:09;;;;;;;19.17;13.65;;;2.00;99.90;;;;;;5070541;28;20418;-76
2021/01/04 08:18:36;;;;;;;18.17;12.53;;;3.30;99.90;;;;;;5092090;28;20527;-75
2021/01/04 08:21:08;;;;;;;21.48;13.57;;;;;;;;;;5094542;28;20859;-75
2021/01/04 08:23:43;;;;;;;22.05;13.43;;;2.00;99.90;;;;;;5070276;28;20410;-75
2021/01/04 08:26:41;;;;;;;18.02;13.38;;;2.20;99.90;;;;;;5083274;28;20385;-76
2021/01/04 08:29:21;;;;;;;17.25;14.07;;;2.60;99.90;;;;;;5111362;28;20412;-75
2021/01/04 08:32:03;;;;;;;16.52;12.52;;;2.00;99.90;;;;;;5111448;28;20424;-77
2021/01/04 08:34:38;;;;;;;19.13;13.45;;;2.20;99.90;;;;;;5107282;28;20432;-75
2021/01/04 08:37:03;;;;;;;18.45;12.63;;;3.20;99.90;;;;;;5089641;28;20382;-75
2021/01/04 08:39:40;;;;;;;15.65;11.60;;;3.70;99.90;;;;;;5091715;28;20416;-78
2021/01/04 08:42:20;;;;;;;18.08;11.80;;;2.50;99.90;;;;;;5090665;28;20374;-76
2021/01/04 08:45:14;;;;;;;17.20;12.15;;;2.80;99.90;;;;;;5091432;28;20407;-76
2021/01/04 08:47:52;;;;;;;18.98;12.00;;;2.70;99.90;;;;;;5091503;28;20488;-76
2021/01/04 08:50:35;;;;;;;16.80;12.10;;;2.70;99.90;;;;;;5091468;28;20396;-76
2021/01/04 08:53:19;;;;;;;16.23;11.40;;;2.50;99.90;;;;;;5107648;28;20435;-76
2021/01/04 08:55:45;;;;;;;15.32;11.30;;;4.80;99.90;;;;;;5111598;28;20494;-76
2021/01/04 08:58:17;;;;;;;18.20;12.03;;;2.50;99.90;;;;;;5113817;28;20436;-76
2021/01/04 09:00:44;;;;;;;17.60;12.77;;;;;;;;;;5115824;28;20380;-76
2021/01/04 09:03:20;;;;;;;17.23;11.98;;;2.30;99.90;;;;;;5113640;28;20944;-75
2021/01/04 09:05:46;;;;;;;19.25;11.98;;;2.50;99.90;;;;;;5115870;28;20392;-75
2021/01/04 09:08:15;;;;;;;19.70;13.00;;;2.90;99.90;;;;;;5114893;28;20371;-75
2021/01/04 09:10:49;;;;;;;18.52;13.10;;;2.90;99.90;;;;;;5115749;28;20403;-77
2021/01/04 09:13:32;;;;;;;15.90;12.50;;;2.50;99.90;;;;;;5115909;28;20781;-77
2021/01/04 09:16:23;;;;;;;16.95;13.15;;;2.70;99.90;;;;;;5114896;28;20379;-77
2021/01/04 09:18:52;;;;;;;18.20;11.80;;;2.90;99.90;;;;;;5114948;28;20476;-80
2021/01/04 09:21:36;;;;;;;16.58;12.55;;;3.20;99.90;;;;;;5115387;28;20380;-77
2021/01/04 09:24:08;;;;;;;17.13;12.48;;;2.60;99.90;;;;;;5114733;28;20423;-75
2021/01/04 09:26:38;;;;;;;16.40;11.52;;;2.60;99.90;;;;;;5103346;28;20467;-76
2021/01/04 09:29:16;;;;;;;17.05;12.18;;;2.60;99.90;;;;;;5094263;28;20420;-76
2021/01/04 09:31:59;;;;;;;17.58;12.45;;;3.60;99.90;;;;;;5094931;28;20427;-77
2021/01/04 09:34:29;;;;;;;17.17;11.45;;;3.10;99.90;;;;;;5095129;28;20397;-77
2021/01/04 09:37:02;;;;;;;15.93;11.50;;;4.50;99.90;;;;;;5094134;28;20409;-77
2021/01/04 09:39:31;;;;;;;15.80;10.52;;;3.00;99.90;;;;;;5094726;28;20463;-77
2021/01/04 09:41:59;;;;;;;15.55;10.68;;;3.10;99.90;;;;;;5093892;28;20390;-77
2021/01/04 09:44:25;;;;;;;16.48;12.25;;;3.80;99.90;;;;;;5094669;28;20399;-77
2021/01/04 09:47:00;;;;;;;18.02;12.02;;;3.80;99.90;;;;;;5093924;28;20375;-79
2021/01/04 09:49:44;;;;;;;14.40;10.95;;;3.50;99.90;;;;;;5094628;28;20426;-77
2021/01/04 09:52:37;;;;;;;15.40;11.53;;;3.40;99.90;;;;;;5093885;28;20554;-78
2021/01/04 09:55:08;;;;;;;19.00;12.60;;;3.40;99.90;;;;;;5085017;28;20382;-77
2021/01/04 09:57:41;;;;;;;15.57;11.07;;;2.90;99.90;;;;;;5079279;28;20380;-76
2021/01/04 10:00:20;;;;;;;18.05;11.18;;;4.90;99.90;;;;;;5093693;28;20412;-76
2021/01/04 10:02:45;;;;;;;18.65;12.48;;;3.20;99.90;;;;;;5094543;28;20430;-76
2021/01/04 10:05:14;;;;;;;16.57;12.07;;;3.50;99.90;;;;;;5093720;28;20433;-77
2021/01/04 10:07:41;;;;;;;16.10;12.00;;;2.80;99.90;;;;;;5093555;28;20406;-76
2021/01/04 10:10:13;;;;;;;18.20;12.10;;;3.20;99.90;;;;;;5089919;28;20407;-76
2021/01/04 10:12:38;;;;;;;15.98;10.95;;;3.10;99.90;;;;;;5073520;28;20387;-77
2021/01/04 10:15:13;;;;;;;18.00;11.30;;;4.20;99.90;;;;;;5073465;28;20925;-76
2021/01/04 10:17:45;;;;;;;15.02;11.07;;;3.10;99.90;;;;;;5073669;28;20478;-76
2021/01/04 10:20:28;;;;;;;14.10;10.15;;;3.80;99.90;;;;;;5072909;28;20729;-77
2021/01/04 10:22:57;;;;;;;15.23;10.50;;;3.70;99.90;;;;;;5071721;28;20756;-77
2021/01/04 10:25:38;;;;;;;15.48;10.48;;;5.10;99.90;;;;;;5077662;28;20419;-77
2021/01/04 10:28:07;;;;;;;15.35;11.20;;;3.00;99.90;;;;;;5103250;28;20425;-76
2021/01/04 10:30:32;;;;;;;15.50;10.38;;;3.50;99.90;;;;;;5093620;28;20382;-76
2021/01/04 10:33:29;;;;;;;13.13;9.53;;;4.30;99.90;;;;;;5093286;28;20493;-75
2021/01/04 10:36:15;;;;;;;14.82;11.40;;;3.90;99.90;;;;;;5089411;28;20826;-79
2021/01/04 10:38:48;;;;;;;13.00;9.90;;;3.70;99.90;;;;;;5092023;28;20410;-76
2021/01/04 10:41:16;;;;;;;16.13;9.90;;;3.30;99.90;;;;;;5092921;28;20810;-75
2021/01/04 10:43:44;;;;;;;14.93;11.23;;;3.40;99.90;;;;;;5092671;28;20409;-76
2021/01/04 10:46:32;;;;;;;13.95;9.80;;;3.30;99.90;;;;;;5092738;28;20381;-77
2021/01/04 10:49:01;;;;;;;13.68;10.23;;;3.40;99.90;;;;;;5093071;28;20493;-77
2021/01/04 10:51:28;;;;;;;14.45;10.30;;;4.60;99.90;;;;;;5093331;28;20370;-77
2021/01/04 10:53:54;;;;;;;14.98;10.27;;;5.20;99.90;;;;;;5085712;28;20779;-77
2021/01/04 10:56:19;;;;;;;13.30;9.73;;;3.80;99.90;;;;;;5078969;28;20376;-77
2021/01/04 10:59:12;;;;;;;16.43;11.97;;;3.20;99.90;;;;;;5089002;28;20417;-76
2021/01/04 11:01:42;;;;;;;16.02;10.93;;;3.20;99.90;;;;;;5088575;28;20399;-77
2021/01/04 11:04:16;;;;;;;14.90;10.43;;;2.80;99.90;;;;;;5072300;28;20413;-77
2021/01/04 11:07:00;;;;;;;16.45;11.27;;;2.40;99.90;;;;;;5072714;28;20371;-77
2021/01/04 11:09:29;;;;;;;13.80;10.18;;;2.40;99.90;;;;;;5073022;28;20392;-76
2021/01/04 11:12:15;;;;;;;14.98;10.50;;;2.90;99.90;;;;;;5091382;28;20386;-77
2021/01/04 11:14:56;;;;;;;14.35;10.25;;;3.00;99.90;;;;;;5092975;28;20425;-77
2021/01/04 11:17:31;;;;;;;16.65;12.50;;;2.70;99.90;;;;;;5093144;28;20429;-76
2021/01/04 11:20:10;;;;;;;16.67;11.27;;;2.80;99.90;;;;;;5092476;28;20421;-80
2021/01/04 11:22:36;;;;;;;16.20;10.82;;;2.90;99.90;;;;;;5092941;28;20430;-76
2021/01/04 11:25:02;;;;;;;18.35;12.10;;;3.70;99.90;;;;;;5092076;28;20379;-76
2021/01/04 11:27:28;;;;;;;16.55;11.70;;;3.10;99.90;;;;;;5085968;28;20420;-76
2021/01/04 11:29:54;;;;;;;17.42;10.98;;;5.00;99.90;;;;;;5072443;28;20411;-74
2021/01/04 11:32:21;;;;;;;18.33;10.93;;;3.60;99.90;;;;;;5071746;28;20860;-76
2021/01/04 11:34:50;;;;;;;14.65;10.15;;;2.80;99.90;;;;;;5072298;28;20474;-76
2021/01/04 11:37:17;;;;;;;16.13;10.73;;;2.70;99.90;;;;;;5083649;28;20736;-76
2021/01/04 11:39:43;;;;;;;16.17;10.98;;;3.70;99.90;;;;;;5092012;28;20696;-75
2021/01/04 11:42:11;;;;;;;18.20;12.57;;;3.20;99.90;;;;;;5091667;28;20381;-74
2021/01/04 11:44:37;;;;;;;14.57;10.38;;;4.20;99.90;;;;;;5092362;28;20435;-75
2021/01/04 11:47:04;;;;;;;13.40;10.50;;;4.70;99.90;;;;;;5091505;28;20383;-75
2021/01/04 11:49:29;;;;;;;16.90;11.25;;;4.20;99.90;;;;;;5091998;28;20389;-75
2021/01/04 11:51:55;;;;;;;14.70;10.40;;;4.60;99.90;;;;;;5092142;28;20378;-74
2021/01/04 11:54:21;;;;;;;14.82;10.55;;;3.20;99.90;;;;;;5091370;28;20374;-75
2021/01/04 11:56:48;;;;;;;12.18;9.57;;;4.20;99.90;;;;;;5092701;28;20374;-75
2021/01/04 11:59:15;;;;;;;14.57;10.27;;;3.30;99.90;;;;;;5090104;28;20900;-75
2021/01/04 12:01:40;;;;;;;12.80;9.38;;;3.20;99.90;;;;;;5099079;28;20407;-75
2021/01/04 12:04:07;;;;;;;14.52;11.43;;;;;;;;;;5111649;28;20852;-75
2021/01/04 12:06:33;;;;;;;15.63;10.68;;;2.70;99.90;;;;;;5112282;28;20473;-76
2021/01/04 12:08:58;;;;;;;14.85;11.32;;;3.00;99.90;;;;;;5110595;28;20465;-77
2021/01/04 12:11:25;;;;;;;14.57;9.10;;;;;;;;;;5112022;28;20756;-77
2021/01/04 12:13:51;;;;;;;15.13;10.30;;;;;;;;;;5110558;28;20412;-77
2021/01/04 12:16:18;;;;;;;13.55;10.07;;;2.90;99.90;;;;;;5111580;28;20373;-77
2021/01/04 12:18:44;;;;;;;12.27;9.27;;;3.10;99.90;;;;;;5112035;28;20412;-76
2021/01/04 12:21:10;;;;;;;14.05;10.13;;;3.40;99.90;;;;;;5111679;28;20369;-76
2021/01/04 12:23:36;;;;;;;11.52;8.57;;;3.10;99.90;;;;;;5112152;28;20855;-76
2021/01/04 12:26:01;;;;;;;13.82;9.40;;;3.40;99.90;;;;;;5111406;28;20404;-77
2021/01/04 12:28:27;;;;;;;14.23;9.18;;;3.40;99.90;;;;;;5100339;28;20420;-76
2021/01/04 12:30:53;;;;;;;12.18;8.98;;;4.90;99.90;;;;;;5090910;28;20739;-77
2021/01/04 12:33:18;;;;;;;11.75;8.48;;;4.60;99.90;;;;;;5091088;28;20738;-76
2021/01/04 12:35:44;;;;;;;10.90;8.52;;;3.70;99.90;;;;;;5091573;28;20831;-76
2021/01/04 12:38:10;;;;;;;11.50;8.45;;;4.30;99.90;;;;;;5088963;28;20894;-76
2021/01/04 12:40:36;;;;;;;12.60;8.18;;;4.10;99.90;;;;;;5091518;28;20394;-75
2021/01/04 12:43:03;;;;;;;10.90;8.10;;;3.80;99.90;;;;;;5091371;28;20398;-76
2021/01/04 12:45:30;;;;;;;11.15;7.53;;;3.70;99.90;;;;;;5090151;28;20382;-76
2021/01/04 12:47:56;;;;;;;10.50;6.65;;;4.30;99.90;;;;;;5091469;28;20423;-76
2021/01/04 12:50:22;;;;;;;10.52;7.90;;;4.10;99.90;;;;;;5091273;28;20381;-76
2021/01/04 12:52:49;;;;;;;7.82;6.78;;;6.30;99.90;;;;;;5092327;28;20370;-76
2021/01/04 12:55:16;;;;;;;9.60;7.38;;;3.60;99.90;;;;;;5090706;28;20393;-76
2021/01/04 12:57:42;;;;;;;9.02;6.60;;;3.60;99.90;;;;;;5093370;28;20417;-76
2021/01/04 13:00:08;;;;;;;10.50;6.75;;;6.10;99.90;;;;;;5090852;28;20453;-76
2021/01/04 13:02:34;;;;;;;9.38;6.70;;;4.00;99.90;;;;;;5106109;28;20407;-77
2021/01/04 13:05:00;;;;;;;10.00;7.10;;;4.80;99.90;;;;;;5111707;28;20813;-77
2021/01/04 13:07:27;;;;;;;11.90;7.07;;;3.80;99.90;;;;;;5109634;28;20380;-76
2021/01/04 13:09:53;;;;;;;8.10;6.10;;;3.70;99.90;;;;;;5111347;28;20373;-76
2021/01/04 13:12:18;;;;;;;8.90;7.20;;;4.20;99.90;;;;;;5110834;28;20403;-76
2021/01/04 13:14:47;;;;;;;8.17;5.90;;;4.90;99.90;;;;;;5111357;28;20365;-76
2021/01/04 13:17:16;;;;;;;8.32;5.70;;;3.80;99.90;;;;;;5110876;28;20395;-76
2021/01/04 13:19:42;;;;;;;7.28;5.32;;;;;;;;;;5111118;28;20917;-76
2021/01/04 13:22:08;;;;;;;7.90;5.85;;;3.70;99.80;;;;;;5109862;28;20423;-76
2021/01/04 13:24:34;;;;;;;7.97;6.30;;;5.10;99.90;;;;;;5110166;28;20408;-76
2021/01/04 13:27:00;;;;;;;7.00;5.67;;;3.00;99.90;;;;;;5111495;28;20429;-76